Time;durP1;ratioP1;P1;durP2;ratioP2;P2;SDS_P1;SDS_P2;PMS_P1;PMS_P2;Temp;Humidity;BMP_temperature;BMP_pressure;BME280_temperature;BME280_humidity;BME280_pressure;Samples;Min_cycle;Max_cycle;Signal;HPM_P1;HPM_P2
2021/09/11 00:00:14;;;;;;;8.35;4.65;;;18.10;99.90;;;;;;4901834;29;20032;-75
2021/09/11 00:02:40;;;;;;;5.50;4.43;;;18.10;99.90;;;;;;4901381;29;20044;-71
2021/09/11 00:05:07;;;;;;;7.63;4.95;;;18.10;99.90;;;;;;4900917;29;20088;-71
2021/09/11 00:07:33;;;;;;;13.63;5.10;;;18.10;99.90;;;;;;4900960;29;20561;-71
2021/09/11 00:09:59;;;;;;;8.68;4.90;;;18.00;99.90;;;;;;4914635;29;20068;-72
2021/09/11 00:12:24;;;;;;;8.40;4.85;;;18.00;99.90;;;;;;4900900;29;20068;-71
2021/09/11 00:14:50;;;;;;;6.55;4.97;;;18.00;99.90;;;;;;4901019;29;20112;-71
2021/09/11 00:17:15;;;;;;;13.55;5.38;;;18.00;99.90;;;;;;4900612;29;20128;-71
2021/09/11 00:19:41;;;;;;;6.68;4.80;;;17.90;99.90;;;;;;4900591;29;20056;-71
2021/09/11 00:22:07;;;;;;;7.57;4.95;;;17.90;99.90;;;;;;4900809;29;20017;-70
2021/09/11 00:24:32;;;;;;;8.02;5.25;;;17.90;99.90;;;;;;4900595;29;20039;-70
2021/09/11 00:26:58;;;;;;;12.05;4.78;;;17.90;99.90;;;;;;4900817;29;20113;-71
2021/09/11 00:29:24;;;;;;;7.38;5.25;;;17.80;99.90;;;;;;4900509;29;20452;-71
2021/09/11 00:31:50;;;;;;;7.63;4.93;;;17.80;99.90;;;;;;4900836;29;20059;-72
2021/09/11 00:34:15;;;;;;;10.43;6.07;;;17.80;99.90;;;;;;4900488;29;20084;-71
2021/09/11 00:36:41;;;;;;;8.40;5.80;;;17.80;99.90;;;;;;4900678;29;20028;-72
2021/09/11 00:39:07;;;;;;;10.02;5.88;;;17.80;99.90;;;;;;4902476;29;20081;-74
2021/09/11 00:41:34;;;;;;;11.85;6.75;;;17.80;99.90;;;;;;4901656;29;20247;-72
2021/09/11 00:43:59;;;;;;;15.83;4.13;;;17.70;99.90;;;;;;4900985;29;20020;-72
2021/09/11 00:46:25;;;;;;;9.75;5.88;;;17.70;99.90;;;;;;4900481;29;20039;-72
2021/09/11 00:48:51;;;;;;;16.30;7.32;;;17.70;99.90;;;;;;4900575;29;20496;-72
2021/09/11 00:51:17;;;;;;;8.30;5.97;;;17.60;99.90;;;;;;4900535;29;20024;-72
2021/09/11 00:53:43;;;;;;;15.20;6.75;;;17.60;99.90;;;;;;4900541;29;20421;-72
2021/09/11 00:56:09;;;;;;;12.65;7.03;;;17.60;99.90;;;;;;4899962;29;20032;-72
2021/09/11 00:58:35;;;;;;;13.93;7.50;;;17.60;99.90;;;;;;4900691;29;20032;-75
2021/09/11 01:01:01;;;;;;;15.73;7.82;;;17.60;99.90;;;;;;4900285;29;20028;-72
2021/09/11 01:03:27;;;;;;;12.02;6.85;;;17.60;99.90;;;;;;4899866;29;20038;-72
2021/09/11 01:05:53;;;;;;;16.23;7.75;;;17.60;99.90;;;;;;4900530;29;20498;-71
2021/09/11 01:08:19;;;;;;;16.45;7.68;;;17.50;99.90;;;;;;4903499;29;20037;-71
2021/09/11 01:10:44;;;;;;;14.38;7.53;;;17.50;99.90;;;;;;4900887;29;20079;-75
2021/09/11 01:13:11;;;;;;;20.15;8.43;;;17.50;99.90;;;;;;4900686;29;20084;-72
2021/09/11 01:15:39;;;;;;;16.10;7.82;;;17.50;99.90;;;;;;4899794;29;20077;-72
2021/09/11 01:18:05;;;;;;;17.10;7.80;;;17.50;99.90;;;;;;4900496;29;20402;-74
2021/09/11 01:20:32;;;;;;;13.77;7.72;;;17.50;99.90;;;;;;4900143;29;20478;-73
2021/09/11 01:22:58;;;;;;;9.88;5.55;;;17.40;99.90;;;;;;4915895;29;20043;-75
2021/09/11 01:25:24;;;;;;;20.42;8.93;;;17.40;99.90;;;;;;4901584;29;20498;-74
2021/09/11 01:27:51;;;;;;;14.32;8.85;;;17.40;99.90;;;;;;4901850;29;20029;-72
2021/09/11 01:30:20;;;;;;;16.80;7.88;;;17.50;99.90;;;;;;4901146;29;20077;-72
2021/09/11 01:32:46;;;;;;;;;;;17.40;99.90;;;;;;4900892;29;20410;-72
2021/09/11 01:35:12;;;;;;;15.52;8.55;;;17.40;99.90;;;;;;4908555;29;19938;-72
2021/09/11 01:37:37;;;;;;;16.05;8.27;;;17.40;99.90;;;;;;4901076;29;20025;-72
2021/09/11 01:40:05;;;;;;;15.55;8.02;;;17.40;99.90;;;;;;4901919;29;20044;-72
2021/09/11 01:42:30;;;;;;;13.35;8.85;;;17.40;99.90;;;;;;4902544;29;20029;-71
2021/09/11 01:45:04;;;;;;;25.80;9.18;;;17.30;99.90;;;;;;4902220;29;20043;-71
2021/09/11 01:47:30;;;;;;;16.77;8.40;;;17.30;99.90;;;;;;4901772;29;20057;-72
2021/09/11 01:49:55;;;;;;;16.92;8.20;;;17.30;99.90;;;;;;4900122;29;20438;-71
2021/09/11 01:52:22;;;;;;;13.82;8.00;;;17.30;99.90;;;;;;4902562;29;20137;-72
2021/09/11 01:54:48;;;;;;;15.43;8.60;;;17.20;99.90;;;;;;4901196;29;20025;-71
2021/09/11 01:57:14;;;;;;;18.48;7.78;;;17.20;99.90;;;;;;4909105;29;20541;-71
2021/09/11 01:59:40;;;;;;;12.75;7.43;;;17.20;99.90;;;;;;4911986;29;20032;-72
2021/09/11 02:02:08;;;;;;;15.88;7.25;;;17.30;99.90;;;;;;4899056;29;20032;-71
2021/09/11 02:04:34;;;;;;;16.98;8.30;;;17.20;99.90;;;;;;4898968;29;20048;-71
2021/09/11 02:07:03;;;;;;;15.02;7.10;;;17.20;99.90;;;;;;4898831;29;20044;-71
2021/09/11 02:09:30;;;;;;;15.88;6.88;;;17.10;99.90;;;;;;4896948;29;20446;-72
2021/09/11 02:11:57;;;;;;;17.73;7.40;;;17.10;99.90;;;;;;4899369;29;20032;-71
2021/09/11 02:14:23;;;;;;;19.52;7.13;;;17.10;99.90;;;;;;4898770;29;20025;-71
2021/09/11 02:16:48;;;;;;;11.23;6.43;;;17.10;99.90;;;;;;4898584;29;20024;-72
2021/09/11 02:19:14;;;;;;;12.88;6.50;;;17.10;99.90;;;;;;4898464;29;20424;-71
2021/09/11 02:21:40;;;;;;;15.48;7.50;;;17.10;99.90;;;;;;4898173;29;20435;-71
2021/09/11 02:24:06;;;;;;;13.07;6.13;;;17.10;99.90;;;;;;4897819;29;20032;-71
2021/09/11 02:26:32;;;;;;;9.40;7.22;;;17.10;99.90;;;;;;4896373;29;20125;-71
2021/09/11 02:28:58;;;;;;;13.70;6.97;;;17.10;99.90;;;;;;4898253;29;20024;-71
2021/09/11 02:31:24;;;;;;;11.13;7.07;;;17.10;99.90;;;;;;4898228;29;20029;-71
2021/09/11 02:33:50;;;;;;;16.73;7.22;;;17.10;99.90;;;;;;4898126;29;20401;-72
2021/09/11 02:36:16;;;;;;;10.93;6.70;;;17.20;99.90;;;;;;4896823;29;20131;-72
2021/09/11 02:38:43;;;;;;;16.88;6.68;;;17.20;99.90;;;;;;4897942;29;20052;-71
2021/09/11 02:41:08;;;;;;;13.05;7.00;;;17.20;99.90;;;;;;4897184;29;20024;-71
2021/09/11 02:43:34;;;;;;;17.13;6.05;;;17.20;99.90;;;;;;4897763;29;20549;-71
2021/09/11 02:46:00;;;;;;;14.52;7.05;;;17.20;99.90;;;;;;4897843;29;20070;-71
2021/09/11 02:48:25;;;;;;;14.57;7.45;;;17.30;99.90;;;;;;4898172;29;20037;-71
2021/09/11 02:50:51;;;;;;;21.50;6.60;;;17.30;99.90;;;;;;4897252;29;20032;-71
2021/09/11 02:53:17;;;;;;;16.25;7.47;;;17.30;99.90;;;;;;4897189;29;20028;-71
2021/09/11 02:55:42;;;;;;;16.30;7.05;;;17.30;99.90;;;;;;4897746;29;20465;-71
2021/09/11 02:58:08;;;;;;;12.88;6.93;;;17.40;99.90;;;;;;4897307;29;20397;-71
2021/09/11 03:00:34;;;;;;;22.35;7.47;;;17.40;99.90;;;;;;4897995;29;20027;-71
2021/09/11 03:03:00;;;;;;;14.20;7.90;;;17.40;99.90;;;;;;4896191;29;20533;-71
2021/09/11 03:05:26;;;;;;;15.85;7.55;;;17.40;99.90;;;;;;4897277;29;20047;-71
2021/09/11 03:07:51;;;;;;;17.65;8.57;;;17.50;99.90;;;;;;4897200;29;20028;-71
2021/09/11 03:10:17;;;;;;;18.65;8.63;;;17.50;99.90;;;;;;4897201;29;20552;-71
2021/09/11 03:12:42;;;;;;;14.07;8.40;;;17.50;99.90;;;;;;4897994;29;20037;-71
2021/09/11 03:15:09;;;;;;;16.15;8.13;;;17.50;99.90;;;;;;4897417;29;20032;-71
2021/09/11 03:17:34;;;;;;;15.38;8.02;;;17.50;99.90;;;;;;4896720;29;20417;-71
2021/09/11 03:20:00;;;;;;;16.92;8.93;;;17.50;99.90;;;;;;4897371;29;20024;-71
2021/09/11 03:22:26;;;;;;;23.17;9.60;;;17.50;99.90;;;;;;4897103;29;20117;-71
2021/09/11 03:24:51;;;;;;;18.63;9.07;;;17.60;99.90;;;;;;4911952;29;20080;-71
2021/09/11 03:27:17;;;;;;;24.35;10.20;;;17.60;99.90;;;;;;4909233;29;20469;-71
2021/09/11 03:29:42;;;;;;;17.52;9.70;;;17.60;99.90;;;;;;4906158;29;20036;-71
2021/09/11 03:32:08;;;;;;;18.65;10.27;;;17.60;99.90;;;;;;4897125;29;20025;-71
2021/09/11 03:34:34;;;;;;;19.88;10.85;;;17.60;99.90;;;;;;4896666;29;20036;-71
2021/09/11 03:37:00;;;;;;;20.65;10.73;;;17.60;99.90;;;;;;4895964;29;20037;-71
2021/09/11 03:39:26;;;;;;;19.95;10.38;;;17.60;99.90;;;;;;4896474;29;20490;-71
2021/09/11 03:41:52;;;;;;;20.13;10.63;;;17.60;99.90;;;;;;4896165;29;20072;-71
2021/09/11 03:44:17;;;;;;;21.20;10.98;;;17.60;99.90;;;;;;4897156;29;20025;-71
2021/09/11 03:46:43;;;;;;;20.77;10.73;;;17.60;99.90;;;;;;4897298;29;20450;-71
2021/09/11 03:49:09;;;;;;;18.30;10.43;;;17.70;99.90;;;;;;4896805;29;20033;-71
2021/09/11 03:51:34;;;;;;;21.60;10.85;;;17.70;99.90;;;;;;4897548;29;20083;-71
2021/09/11 03:54:01;;;;;;;21.77;11.43;;;17.70;99.90;;;;;;4895148;29;20073;-71
2021/09/11 03:56:27;;;;;;;24.13;11.95;;;17.70;99.90;;;;;;4897006;29;20025;-71
2021/09/11 03:58:53;;;;;;;25.45;11.60;;;17.70;99.90;;;;;;4897140;29;20241;-71
2021/09/11 04:01:18;;;;;;;22.73;11.52;;;17.70;99.90;;;;;;4897025;29;20033;-71
2021/09/11 04:03:44;;;;;;;26.08;10.90;;;17.70;99.90;;;;;;4896507;29;20021;-71
2021/09/11 04:06:11;;;;;;;22.30;10.32;;;17.70;99.90;;;;;;4911119;29;20044;-71
2021/09/11 04:08:37;;;;;;;24.65;12.10;;;17.70;99.90;;;;;;4895685;29;20078;-71
2021/09/11 04:11:03;;;;;;;22.10;10.85;;;17.70;99.90;;;;;;4895949;29;20055;-71
2021/09/11 04:13:28;;;;;;;24.48;11.35;;;17.70;99.90;;;;;;4895978;29;20033;-71
2021/09/11 04:15:54;;;;;;;26.75;11.82;;;17.80;99.90;;;;;;4895096;29;20047;-71
2021/09/11 04:18:20;;;;;;;25.63;10.80;;;17.70;99.90;;;;;;4896571;29;20044;-71
2021/09/11 04:20:46;;;;;;;21.38;11.88;;;17.80;99.90;;;;;;4897449;29;20495;-71
2021/09/11 04:23:11;;;;;;;20.65;11.25;;;17.80;99.90;;;;;;4896719;29;20482;-71
2021/09/11 04:25:37;;;;;;;21.10;10.48;;;17.70;99.90;;;;;;4897257;29;20025;-71
2021/09/11 04:28:02;;;;;;;22.65;11.07;;;17.80;99.90;;;;;;4910934;29;20135;-71
2021/09/11 04:30:28;;;;;;;25.40;12.20;;;17.80;99.90;;;;;;4897139;29;20081;-71
2021/09/11 04:32:54;;;;;;;21.48;10.65;;;17.80;99.90;;;;;;4896897;29;20092;-71
2021/09/11 04:35:19;;;;;;;25.13;11.02;;;17.80;99.90;;;;;;4896622;29;20043;-71
2021/09/11 04:37:45;;;;;;;22.73;10.90;;;17.80;99.90;;;;;;4896155;29;20036;-72
2021/09/11 04:40:11;;;;;;;22.90;10.70;;;17.80;99.90;;;;;;4895982;29;20073;-71
2021/09/11 04:42:36;;;;;;;22.33;11.23;;;17.80;99.90;;;;;;4896858;29;20028;-71
2021/09/11 04:45:03;;;;;;;17.52;10.30;;;17.80;99.90;;;;;;4897137;29;20074;-71
2021/09/11 04:47:28;;;;;;;22.23;11.07;;;17.80;99.90;;;;;;4900157;29;20120;-71
2021/09/11 04:49:55;;;;;;;16.73;10.23;;;17.70;99.90;;;;;;4914185;29;20060;-71
2021/09/11 04:52:20;;;;;;;19.08;10.70;;;17.70;99.90;;;;;;4900420;29;20024;-71
2021/09/11 04:54:47;;;;;;;19.77;9.95;;;17.70;99.90;;;;;;4899862;29;20039;-71
2021/09/11 04:57:12;;;;;;;20.15;10.00;;;17.70;99.90;;;;;;4899771;29;20421;-71
2021/09/11 04:59:38;;;;;;;23.42;10.25;;;17.80;99.90;;;;;;4899898;29;20025;-71
2021/09/11 05:02:04;;;;;;;20.58;11.15;;;17.80;99.90;;;;;;4899416;29;20103;-71
2021/09/11 05:04:29;;;;;;;22.67;10.25;;;17.70;99.90;;;;;;4899810;29;20398;-71
2021/09/11 05:06:55;;;;;;;24.20;10.60;;;17.80;99.90;;;;;;4899565;29;20021;-71
2021/09/11 05:09:21;;;;;;;24.15;11.15;;;17.80;99.90;;;;;;4899584;29;20033;-71
2021/09/11 05:11:47;;;;;;;21.38;11.00;;;17.80;99.90;;;;;;4899884;29;20024;-71
2021/09/11 05:14:13;;;;;;;23.05;10.35;;;17.80;99.90;;;;;;4899295;29;20033;-71
2021/09/11 05:16:38;;;;;;;20.83;10.23;;;17.80;99.90;;;;;;4899436;29;20111;-71
2021/09/11 05:19:04;;;;;;;28.00;10.73;;;17.90;99.90;;;;;;4913795;29;20100;-71
2021/09/11 05:21:30;;;;;;;19.70;11.27;;;17.90;99.90;;;;;;4899336;29;20113;-71
2021/09/11 05:23:55;;;;;;;20.15;10.60;;;17.80;99.90;;;;;;4897915;29;20398;-71
2021/09/11 05:26:21;;;;;;;19.88;9.48;;;17.80;99.90;;;;;;4899406;29;20024;-71
2021/09/11 05:28:46;;;;;;;20.23;9.80;;;17.80;99.90;;;;;;4899409;29;20033;-71
2021/09/11 05:31:12;;;;;;;17.67;10.45;;;17.90;99.90;;;;;;4899226;29;20041;-71
2021/09/11 05:33:38;;;;;;;19.63;11.38;;;17.90;99.90;;;;;;4899170;29;20032;-71
2021/09/11 05:36:04;;;;;;;22.52;10.57;;;17.80;99.90;;;;;;4898989;29;20039;-72
2021/09/11 05:38:29;;;;;;;17.85;10.40;;;17.80;99.90;;;;;;4898966;29;20021;-71
2021/09/11 05:40:55;;;;;;;29.75;11.32;;;17.80;99.90;;;;;;4898833;29;20036;-71
2021/09/11 05:43:20;;;;;;;26.65;10.30;;;17.80;99.90;;;;;;4898833;29;20062;-71
2021/09/11 05:45:46;;;;;;;23.23;10.90;;;17.80;99.90;;;;;;4898622;29;20036;-71
2021/09/11 05:48:12;;;;;;;22.98;11.30;;;17.90;99.90;;;;;;4899490;29;20024;-71
2021/09/11 05:50:37;;;;;;;24.95;11.25;;;17.90;99.90;;;;;;4898334;29;20055;-71
2021/09/11 05:53:03;;;;;;;20.75;10.13;;;17.90;99.90;;;;;;4897123;29;20028;-71
2021/09/11 05:55:29;;;;;;;21.42;10.52;;;17.90;99.90;;;;;;4898583;29;20032;-70
2021/09/11 05:57:54;;;;;;;25.15;11.60;;;17.90;99.90;;;;;;4898796;29;20029;-71
2021/09/11 06:00:20;;;;;;;18.90;10.57;;;17.90;99.90;;;;;;4899054;29;20033;-71
2021/09/11 06:02:45;;;;;;;18.63;10.65;;;17.90;99.90;;;;;;4899112;29;20021;-71
2021/09/11 06:05:11;;;;;;;19.80;10.23;;;17.90;99.90;;;;;;4898227;29;20068;-71
2021/09/11 06:07:37;;;;;;;20.48;11.15;;;17.90;99.90;;;;;;4899383;29;20036;-71
2021/09/11 06:10:03;;;;;;;23.40;10.20;;;18.00;99.90;;;;;;4897778;29;20039;-71
2021/09/11 06:12:29;;;;;;;21.02;10.73;;;17.90;99.90;;;;;;4898240;29;20036;-71
2021/09/11 06:14:55;;;;;;;24.13;11.18;;;18.00;99.90;;;;;;4898575;29;20040;-71
2021/09/11 06:17:20;;;;;;;24.67;11.32;;;18.10;99.90;;;;;;4898762;29;20076;-71
2021/09/11 06:19:46;;;;;;;20.75;11.80;;;18.10;99.90;;;;;;4897969;29;20032;-71
2021/09/11 06:22:13;;;;;;;19.67;9.88;;;18.00;99.90;;;;;;4896293;29;20080;-71
2021/09/11 06:24:40;;;;;;;22.10;10.83;;;18.00;99.90;;;;;;4897794;29;20063;-71
2021/09/11 06:27:06;;;;;;;23.93;10.73;;;18.00;99.90;;;;;;4896727;29;20048;-71
2021/09/11 06:29:32;;;;;;;11.07;6.80;;;18.10;99.90;;;;;;4898151;29;20130;-71
2021/09/11 06:31:58;;;;;;;23.02;10.48;;;18.10;99.90;;;;;;4898269;29;20475;-72
2021/09/11 06:34:24;;;;;;;22.20;10.57;;;18.10;99.90;;;;;;4898402;29;20041;-71
2021/09/11 06:36:50;;;;;;;22.83;11.35;;;18.10;99.90;;;;;;4895974;29;20131;-71
2021/09/11 06:39:15;;;;;;;20.00;11.07;;;18.10;99.90;;;;;;4897783;29;20064;-71
2021/09/11 06:41:44;;;;;;;19.25;9.73;;;18.10;99.90;;;;;;4898348;29;20040;-71
2021/09/11 06:44:10;;;;;;;25.95;11.90;;;18.10;99.90;;;;;;4896244;29;20482;-71
2021/09/11 06:46:36;;;;;;;18.58;10.00;;;18.10;99.90;;;;;;4897231;29;20037;-71
2021/09/11 06:49:02;;;;;;;21.27;11.00;;;18.20;99.90;;;;;;4898404;29;20052;-71
2021/09/11 06:51:28;;;;;;;21.88;10.63;;;18.20;99.90;;;;;;4897371;29;20032;-71
2021/09/11 06:53:54;;;;;;;19.40;9.95;;;18.20;99.90;;;;;;4897473;29;20027;-71
2021/09/11 06:56:19;;;;;;;21.27;9.98;;;18.30;99.90;;;;;;4897483;29;20032;-71
2021/09/11 06:58:45;;;;;;;30.58;11.85;;;18.20;99.90;;;;;;4897953;29;20033;-71
2021/09/11 07:01:11;;;;;;;22.05;11.50;;;18.30;99.90;;;;;;4895959;29;20080;-71
2021/09/11 07:03:36;;;;;;;26.27;11.10;;;18.20;99.90;;;;;;4897384;29;20065;-72
2021/09/11 07:06:03;;;;;;;20.83;11.20;;;18.30;99.90;;;;;;4892392;29;20084;-70
2021/09/11 07:08:30;;;;;;;24.80;10.60;;;18.30;99.90;;;;;;4897503;29;20033;-70
2021/09/11 07:10:56;;;;;;;19.73;11.90;;;18.30;99.90;;;;;;4897407;29;20020;-71
2021/09/11 07:13:21;;;;;;;21.58;10.60;;;18.40;99.90;;;;;;4884668;29;20069;-71
2021/09/11 07:15:47;;;;;;;20.20;10.55;;;18.40;99.90;;;;;;4897029;29;20025;-71
2021/09/11 07:18:12;;;;;;;20.30;11.60;;;18.40;99.90;;;;;;4897557;29;20103;-71
2021/09/11 07:20:38;;;;;;;20.70;10.50;;;18.50;99.90;;;;;;4895852;29;20060;-71
2021/09/11 07:23:04;;;;;;;23.98;10.70;;;18.50;99.90;;;;;;4895887;29;20505;-71
2021/09/11 07:25:29;;;;;;;21.35;10.30;;;18.50;99.90;;;;;;4897705;29;20414;-71
2021/09/11 07:27:55;;;;;;;20.15;10.60;;;18.60;99.90;;;;;;4895572;29;20032;-71
2021/09/11 07:30:21;;;;;;;19.65;9.93;;;18.60;99.90;;;;;;4895472;29;20409;-71
2021/09/11 07:32:46;;;;;;;18.90;10.23;;;18.60;99.90;;;;;;4897700;29;20043;-71
2021/09/11 07:35:12;;;;;;;22.23;9.98;;;18.60;99.90;;;;;;4896897;29;20029;-71
2021/09/11 07:37:38;;;;;;;19.17;9.88;;;18.70;99.90;;;;;;4897600;29;20064;-72
2021/09/11 07:40:04;;;;;;;21.80;11.20;;;18.70;99.90;;;;;;4896682;29;20103;-71
2021/09/11 07:42:30;;;;;;;22.08;11.02;;;18.70;99.90;;;;;;4896848;29;20565;-71
2021/09/11 07:44:55;;;;;;;18.92;9.57;;;18.70;99.90;;;;;;4896152;29;20067;-71
2021/09/11 07:47:21;;;;;;;22.30;11.93;;;18.80;99.90;;;;;;4896735;29;20032;-71
2021/09/11 07:49:47;;;;;;;26.70;11.38;;;18.80;99.90;;;;;;4896019;29;20509;-71
2021/09/11 07:52:13;;;;;;;17.52;11.27;;;18.90;99.90;;;;;;4896120;29;20508;-71
2021/09/11 07:54:39;;;;;;;20.55;11.05;;;18.90;99.90;;;;;;4898215;29;20024;-71
2021/09/11 07:57:05;;;;;;;22.55;10.65;;;19.00;99.90;;;;;;4896705;29;20067;-71
2021/09/11 07:59:30;;;;;;;22.95;11.13;;;19.00;99.90;;;;;;4898485;29;20063;-71
2021/09/11 08:01:56;;;;;;;21.52;10.43;;;19.00;99.90;;;;;;4911903;29;20091;-71
2021/09/11 08:04:22;;;;;;;23.10;10.93;;;19.10;99.90;;;;;;4897281;29;20053;-71
2021/09/11 08:06:47;;;;;;;14.15;9.43;;;19.20;99.90;;;;;;4899417;29;20064;-71
2021/09/11 08:09:13;;;;;;;17.38;9.70;;;19.20;99.90;;;;;;4912085;29;20033;-71
2021/09/11 08:11:38;;;;;;;27.63;10.85;;;19.30;99.90;;;;;;4898593;29;20027;-72
2021/09/11 08:14:05;;;;;;;17.40;10.35;;;19.30;99.90;;;;;;4895734;29;20108;-71
2021/09/11 08:16:31;;;;;;;21.27;9.77;;;19.40;99.90;;;;;;4899463;29;20116;-72
2021/09/11 08:18:58;;;;;;;19.50;11.30;;;19.40;99.90;;;;;;4898111;29;20064;-72
2021/09/11 08:21:23;;;;;;;21.27;10.77;;;19.40;99.90;;;;;;4900451;29;20397;-72
2021/09/11 08:23:49;;;;;;;23.65;9.70;;;19.40;99.90;;;;;;4899830;29;20029;-72
2021/09/11 08:26:15;;;;;;;18.90;9.27;;;19.40;99.90;;;;;;4899771;29;20410;-72
2021/09/11 08:28:41;;;;;;;19.20;10.25;;;19.30;99.90;;;;;;4901518;29;20040;-72
2021/09/11 08:31:07;;;;;;;15.35;9.77;;;19.30;99.90;;;;;;4901794;29;20029;-72
2021/09/11 08:33:32;;;;;;;17.85;10.63;;;19.30;99.90;;;;;;4903024;29;20032;-72
2021/09/11 08:35:58;;;;;;;19.83;9.90;;;19.30;99.90;;;;;;4901958;29;20080;-72
2021/09/11 08:38:24;;;;;;;18.00;9.93;;;19.40;99.90;;;;;;4903177;29;20032;-72
2021/09/11 08:40:50;;;;;;;22.98;10.32;;;19.40;99.90;;;;;;4916974;29;20041;-72
2021/09/11 08:43:17;;;;;;;18.95;11.15;;;19.50;99.90;;;;;;4900987;29;20035;-71
2021/09/11 08:45:43;;;;;;;19.90;10.27;;;19.50;99.90;;;;;;4914133;29;20040;-71
2021/09/11 08:48:08;;;;;;;18.45;10.23;;;19.60;99.90;;;;;;4900069;29;20055;-71
2021/09/11 08:50:35;;;;;;;18.27;10.10;;;19.70;99.90;;;;;;4913937;29;20033;-71
2021/09/11 08:53:00;;;;;;;17.75;10.15;;;19.80;99.90;;;;;;4912984;29;20048;-72
2021/09/11 08:55:29;;;;;;;21.02;10.52;;;19.90;99.90;;;;;;4899300;29;20371;-72
2021/09/11 08:58:03;;;;;;;18.98;11.18;;;20.10;99.90;;;;;;4900215;29;20123;-71
2021/09/11 09:00:48;;;;;;;19.88;10.15;;;20.10;99.90;;;;;;4898715;29;20025;-72
2021/09/11 09:03:30;;;;;;;22.83;10.27;;;20.20;99.90;;;;;;4897437;29;20028;-72
2021/09/11 09:06:09;;;;;;;18.70;10.40;;;20.20;99.90;;;;;;4900051;29;20045;-72
2021/09/11 09:08:35;;;;;;;19.55;9.93;;;20.20;99.90;;;;;;4898568;29;20552;-72
2021/09/11 09:11:22;;;;;;;16.27;10.52;;;20.20;99.90;;;;;;4898127;29;20032;-71
2021/09/11 09:14:00;;;;;;;24.40;10.10;;;20.20;99.90;;;;;;4898658;29;20104;-72
2021/09/11 09:16:33;;;;;;;21.83;10.23;;;20.30;99.90;;;;;;4897385;29;20035;-72
2021/09/11 09:19:03;;;;;;;21.13;10.40;;;20.40;99.90;;;;;;4897790;29;20040;-72
2021/09/11 09:21:30;;;;;;;17.23;10.07;;;20.40;99.90;;;;;;4898021;29;20104;-72
2021/09/11 09:24:03;;;;;;;17.75;9.50;;;20.50;99.90;;;;;;4896553;29;20028;-71
2021/09/11 09:26:29;;;;;;;17.58;9.73;;;20.60;99.90;;;;;;4896359;29;20108;-71
2021/09/11 09:29:05;;;;;;;20.15;10.25;;;20.60;99.90;;;;;;4897561;29;20040;-72
2021/09/11 09:31:31;;;;;;;21.20;10.48;;;20.60;99.90;;;;;;4895390;29;20027;-71
2021/09/11 09:33:56;;;;;;;23.60;10.13;;;20.50;99.90;;;;;;4899639;29;20028;-71
2021/09/11 09:36:27;;;;;;;21.85;10.95;;;20.50;99.90;;;;;;4899274;29;20043;-71
2021/09/11 09:39:01;;;;;;;20.20;10.30;;;20.50;99.90;;;;;;4899183;29;20028;-71
2021/09/11 09:41:44;;;;;;;17.30;10.10;;;20.50;99.90;;;;;;4900081;29;20032;-77
2021/09/11 09:44:12;;;;;;;21.48;10.48;;;20.60;99.90;;;;;;4899310;29;20036;-72
2021/09/11 09:46:42;;;;;;;;;;;20.60;99.90;;;;;;4895641;29;20059;-71
2021/09/11 09:49:07;;;;;;;21.80;11.55;;;20.70;99.90;;;;;;4901674;29;19927;-71
2021/09/11 09:51:34;;;;;;;19.88;11.25;;;20.70;99.90;;;;;;4899393;29;20033;-71
2021/09/11 09:54:00;;;;;;;20.27;10.35;;;20.60;99.90;;;;;;4897641;29;20032;-71
2021/09/11 09:56:27;;;;;;;18.80;11.48;;;20.60;99.90;;;;;;4897642;29;20025;-71
2021/09/11 09:58:56;;;;;;;18.02;10.48;;;20.60;99.90;;;;;;4897362;29;20139;-71
2021/09/11 10:01:22;;;;;;;15.73;9.90;;;20.70;99.90;;;;;;4896978;29;20386;-71
2021/09/11 10:03:48;;;;;;;19.50;10.25;;;20.80;99.90;;;;;;4895253;29;20031;-71
2021/09/11 10:06:15;;;;;;;18.58;9.52;;;20.90;99.90;;;;;;4894068;29;20036;-71
2021/09/11 10:08:48;;;;;;;15.35;9.63;;;21.00;99.90;;;;;;4912386;29;20477;-71
2021/09/11 10:11:14;;;;;;;17.83;9.25;;;21.10;99.90;;;;;;4892004;29;20478;-70
2021/09/11 10:13:58;;;;;;;15.30;8.90;;;21.10;99.90;;;;;;4897223;29;20446;-71
2021/09/11 10:16:34;;;;;;;16.15;9.50;;;21.10;99.90;;;;;;4895692;29;20052;-71
2021/09/11 10:19:13;;;;;;;15.85;8.73;;;21.10;99.90;;;;;;4894810;29;20478;-71
2021/09/11 10:21:39;;;;;;;24.75;9.50;;;21.10;99.90;;;;;;4896428;29;20398;-71
2021/09/11 10:24:13;;;;;;;17.48;9.57;;;21.10;99.90;;;;;;4895548;29;20570;-71
2021/09/11 10:26:50;;;;;;;16.80;10.13;;;21.10;99.90;;;;;;4895486;29;20517;-71
2021/09/11 10:29:44;;;;;;;15.77;9.75;;;21.20;99.90;;;;;;4897693;29;20115;-70
2021/09/11 10:32:12;;;;;;;16.73;9.15;;;21.30;99.90;;;;;;4895247;29;20032;-71
2021/09/11 10:34:51;;;;;;;16.23;8.27;;;21.40;99.90;;;;;;4896571;29;20036;-71
2021/09/11 10:37:30;;;;;;;17.58;8.43;;;21.40;99.90;;;;;;4898465;29;20071;-71
2021/09/11 10:40:16;;;;;;;15.98;8.18;;;21.40;99.90;;;;;;4897766;29;20108;-70
2021/09/11 10:43:09;;;;;;;13.70;8.45;;;21.40;99.90;;;;;;4897132;29;20486;-71
2021/09/11 10:45:45;;;;;;;12.43;7.93;;;21.40;99.90;;;;;;4883167;29;20466;-71
2021/09/11 10:48:44;;;;;;;15.00;8.52;;;21.50;99.90;;;;;;4896260;29;20486;-71
2021/09/11 10:51:23;;;;;;;18.70;8.23;;;21.50;99.90;;;;;;4896836;29;20401;-71
2021/09/11 10:54:22;;;;;;;11.02;7.75;;;21.60;99.90;;;;;;4914244;29;20614;-71
2021/09/11 10:56:48;;;;;;;15.48;9.00;;;21.70;99.90;;;;;;4911843;29;20025;-71
2021/09/11 10:59:16;;;;;;;13.52;8.05;;;21.80;99.90;;;;;;4912903;29;20473;-71
2021/09/11 11:02:00;;;;;;;15.77;8.27;;;22.00;99.90;;;;;;4898123;29;20033;-70
2021/09/11 11:04:28;;;;;;;12.43;8.20;;;22.00;99.90;;;;;;4897640;29;20064;-70
2021/09/11 11:06:56;;;;;;;10.82;7.88;;;21.90;99.90;;;;;;4898160;29;20049;-71
2021/09/11 11:09:22;;;;;;;11.52;7.38;;;21.80;99.90;;;;;;4897866;29;20024;-72
2021/09/11 11:11:49;;;;;;;12.35;8.77;;;21.80;99.90;;;;;;4896436;29;20127;-71
2021/09/11 11:14:16;;;;;;;10.40;7.63;;;21.80;99.90;;;;;;4896639;29;20556;-71
2021/09/11 11:16:50;;;;;;;12.85;8.27;;;21.80;99.90;;;;;;4897665;29;20025;-72
2021/09/11 11:19:33;;;;;;;13.10;8.45;;;21.80;99.90;;;;;;4897814;29;20482;-71
2021/09/11 11:22:10;;;;;;;16.48;8.70;;;22.00;99.90;;;;;;4896523;29;20059;-71
2021/09/11 11:24:44;;;;;;;21.10;10.10;;;22.00;99.90;;;;;;4897584;29;20099;-71
2021/09/11 11:27:15;;;;;;;13.27;9.15;;;22.10;99.90;;;;;;4895497;29;20127;-72
2021/09/11 11:29:45;;;;;;;15.88;9.20;;;22.10;99.90;;;;;;4894650;29;20021;-71
2021/09/11 11:32:13;;;;;;;15.73;9.35;;;22.10;99.90;;;;;;4896703;29;20067;-72
2021/09/11 11:34:39;;;;;;;15.45;9.32;;;22.20;99.90;;;;;;4897101;29;20025;-71
2021/09/11 11:37:10;;;;;;;11.10;7.70;;;22.30;99.90;;;;;;4897887;29;20029;-71
2021/09/11 11:39:43;;;;;;;13.95;8.30;;;22.30;99.90;;;;;;4895035;29;20039;-71
2021/09/11 11:42:11;;;;;;;10.55;7.80;;;22.40;99.90;;;;;;4897447;29;20025;-71
2021/09/11 11:44:40;;;;;;;11.32;8.55;;;22.60;99.90;;;;;;4897444;29;20028;-71
2021/09/11 11:47:26;;;;;;;12.32;8.73;;;22.60;99.90;;;;;;4897090;29;20028;-71
2021/09/11 11:49:52;;;;;;;14.17;8.17;;;22.60;99.90;;;;;;4893546;29;20063;-71
2021/09/11 11:52:19;;;;;;;9.20;8.05;;;22.50;99.90;;;;;;4894861;29;20714;-71
2021/09/11 11:54:47;;;;;;;11.43;7.97;;;22.40;99.90;;;;;;4895605;29;20477;-71
2021/09/11 11:57:19;;;;;;;11.18;8.02;;;22.40;99.90;;;;;;4900987;29;20021;-71
2021/09/11 11:59:59;;;;;;;11.18;8.00;;;22.30;99.90;;;;;;4901476;29;20048;-71
2021/09/11 12:02:30;;;;;;;8.63;6.93;;;22.20;99.90;;;;;;4901009;29;20013;-71
2021/09/11 12:05:12;;;;;;;13.85;7.47;;;22.20;99.90;;;;;;4900384;29;20041;-71
2021/09/11 12:07:37;;;;;;;9.68;6.68;;;22.10;99.90;;;;;;4900976;29;20036;-71
2021/09/11 12:10:04;;;;;;;11.10;7.00;;;22.00;99.90;;;;;;4901113;29;20108;-71
2021/09/11 12:12:44;;;;;;;10.23;6.83;;;21.90;99.90;;;;;;4900879;29;20478;-71
2021/09/11 12:15:12;;;;;;;11.68;7.03;;;21.80;99.90;;;;;;4896831;29;20402;-71
2021/09/11 12:17:54;;;;;;;8.85;5.80;;;21.80;99.90;;;;;;4889521;29;20044;-71
2021/09/11 12:20:20;;;;;;;7.88;5.05;;;21.70;99.90;;;;;;4901116;29;20028;-71
2021/09/11 12:23:02;;;;;;;8.00;6.13;;;21.70;99.90;;;;;;4900498;29;20040;-71
2021/09/11 12:25:44;;;;;;;7.78;6.10;;;21.80;99.90;;;;;;4882547;29;20028;-70
2021/09/11 12:28:31;;;;;;;10.82;5.82;;;21.80;99.90;;;;;;4897217;29;20076;-71
2021/09/11 12:30:56;;;;;;;7.80;5.63;;;21.80;99.90;;;;;;4899578;29;20048;-71
2021/09/11 12:33:23;;;;;;;4.50;3.20;;;21.70;99.90;;;;;;4914845;29;20041;-71
2021/09/11 12:35:49;;;;;;;3.30;2.40;;;21.50;99.90;;;;;;4900999;29;20036;-71